sensor_id;sensor_type;location;lat;lon;timestamp;temperature;humidity
38798;SHT11;24546;52.240;16.826;2023-03-01T00:03:02;-1.80;99.90
38798;SHT11;24546;52.240;16.826;2023-03-01T00:08:03;-1.80;99.90
38798;SHT11;24546;52.240;16.826;2023-03-01T00:13:04;-1.90;99.90
38798;SHT11;24546;52.240;16.826;2023-03-01T00:18:05;-1.60;99.90
38798;SHT11;24546;52.240;16.826;2023-03-01T00:23:07;-1.90;99.90
38798;SHT11;24546;52.240;16.826;2023-03-01T00:28:08;-1.90;99.90
38798;SHT11;24546;52.240;16.826;2023-03-01T00:33:09;-2.00;99.90
38798;SHT11;24546;52.240;16.826;2023-03-01T00:38:10;-2.10;99.90
38798;SHT11;24546;52.240;16.826;2023-03-01T00:43:11;-1.90;99.90
38798;SHT11;24546;52.240;16.826;2023-03-01T00:48:12;-2.10;99.90
38798;SHT11;24546;52.240;16.826;2023-03-01T00:53:13;-2.10;99.90
38798;SHT11;24546;52.240;16.826;2023-03-01T00:58:14;-2.20;99.90
38798;SHT11;24546;52.240;16.826;2023-03-01T01:03:15;-2.10;99.90
38798;SHT11;24546;52.240;16.826;2023-03-01T01:08:16;-2.30;99.90
38798;SHT11;24546;52.240;16.826;2023-03-01T01:13:17;-2.30;99.90
38798;SHT11;24546;52.240;16.826;2023-03-01T01:18:19;-2.30;99.90
38798;SHT11;24546;52.240;16.826;2023-03-01T01:23:20;-2.40;99.90
38798;SHT11;24546;52.240;16.826;2023-03-01T01:28:21;-2.50;99.90
38798;SHT11;24546;52.240;16.826;2023-03-01T01:33:22;-2.40;99.90
38798;SHT11;24546;52.240;16.826;2023-03-01T01:38:23;-2.50;99.90
38798;SHT11;24546;52.240;16.826;2023-03-01T01:43:30;-2.60;99.90
38798;SHT11;24546;52.240;16.826;2023-03-01T01:48:40;-2.50;99.90
38798;SHT11;24546;52.240;16.826;2023-03-01T01:53:44;-2.70;99.90
38798;SHT11;24546;52.240;16.826;2023-03-01T01:58:47;-2.70;99.90
38798;SHT11;24546;52.240;16.826;2023-03-01T02:03:48;-2.70;99.90
38798;SHT11;24546;52.240;16.826;2023-03-01T02:08:52;-2.80;99.90
38798;SHT11;24546;52.240;16.826;2023-03-01T02:13:54;-2.90;99.90
38798;SHT11;24546;52.240;16.826;2023-03-01T02:18:56;-2.90;99.90
38798;SHT11;24546;52.240;16.826;2023-03-01T02:24:00;-2.80;99.90
38798;SHT11;24546;52.240;16.826;2023-03-01T02:29:06;-2.90;99.90
38798;SHT11;24546;52.240;16.826;2023-03-01T02:34:11;-2.80;99.90
38798;SHT11;24546;52.240;16.826;2023-03-01T02:39:17;-3.00;99.90
38798;SHT11;24546;52.240;16.826;2023-03-01T02:44:20;-3.00;99.90
38798;SHT11;24546;52.240;16.826;2023-03-01T02:49:27;-3.00;99.90
38798;SHT11;24546;52.240;16.826;2023-03-01T02:59:38;-3.10;99.90
38798;SHT11;24546;52.240;16.826;2023-03-01T03:04:43;-3.10;99.90
38798;SHT11;24546;52.240;16.826;2023-03-01T03:09:44;-3.10;99.90
38798;SHT11;24546;52.240;16.826;2023-03-01T03:14:46;-3.20;99.90
38798;SHT11;24546;52.240;16.826;2023-03-01T03:19:47;-2.90;99.90
38798;SHT11;24546;52.240;16.826;2023-03-01T03:24:48;-3.10;99.90
38798;SHT11;24546;52.240;16.826;2023-03-01T03:29:49;-3.30;99.90
38798;SHT11;24546;52.240;16.826;2023-03-01T03:34:50;-3.00;99.90
38798;SHT11;24546;52.240;16.826;2023-03-01T03:39:51;-3.00;99.90
38798;SHT11;24546;52.240;16.826;2023-03-01T03:44:55;-3.10;99.90
38798;SHT11;24546;52.240;16.826;2023-03-01T03:49:56;-3.20;99.90
38798;SHT11;24546;52.240;16.826;2023-03-01T03:54:57;-3.40;99.90
38798;SHT11;24546;52.240;16.826;2023-03-01T03:59:58;-3.30;99.90
38798;SHT11;24546;52.240;16.826;2023-03-01T04:04:59;-3.40;99.90
38798;SHT11;24546;52.240;16.826;2023-03-01T04:10:00;-3.40;99.90
38798;SHT11;24546;52.240;16.826;2023-03-01T04:15:02;-3.40;99.90
38798;SHT11;24546;52.240;16.826;2023-03-01T04:20:16;-3.50;99.90
38798;SHT11;24546;52.240;16.826;2023-03-01T04:25:18;-3.50;99.90
38798;SHT11;24546;52.240;16.826;2023-03-01T04:30:19;-3.60;99.90
38798;SHT11;24546;52.240;16.826;2023-03-01T04:35:20;-3.60;99.90
38798;SHT11;24546;52.240;16.826;2023-03-01T04:40:21;-3.60;99.90
38798;SHT11;24546;52.240;16.826;2023-03-01T04:45:23;-3.60;99.90
38798;SHT11;24546;52.240;16.826;2023-03-01T04:50:24;-3.60;99.90
38798;SHT11;24546;52.240;16.826;2023-03-01T04:55:27;-3.60;99.90
38798;SHT11;24546;52.240;16.826;2023-03-01T05:00:28;-3.60;99.90
38798;SHT11;24546;52.240;16.826;2023-03-01T05:05:37;-3.70;99.90
38798;SHT11;24546;52.240;16.826;2023-03-01T05:10:38;-3.70;99.90
38798;SHT11;24546;52.240;16.826;2023-03-01T05:15:39;-3.80;99.90
38798;SHT11;24546;52.240;16.826;2023-03-01T05:20:40;-3.70;99.90
38798;SHT11;24546;52.240;16.826;2023-03-01T05:25:44;-3.80;99.90
38798;SHT11;24546;52.240;16.826;2023-03-01T05:30:46;-3.70;99.90
38798;SHT11;24546;52.240;16.826;2023-03-01T05:35:48;-3.50;99.90
38798;SHT11;24546;52.240;16.826;2023-03-01T05:40:52;-3.70;99.90
38798;SHT11;24546;52.240;16.826;2023-03-01T05:45:53;-3.60;99.90
38798;SHT11;24546;52.240;16.826;2023-03-01T05:50:54;-3.80;99.90
38798;SHT11;24546;52.240;16.826;2023-03-01T05:55:55;-3.70;99.90
38798;SHT11;24546;52.240;16.826;2023-03-01T06:00:56;-3.70;99.90
38798;SHT11;24546;52.240;16.826;2023-03-01T06:05:57;-3.60;99.90
38798;SHT11;24546;52.240;16.826;2023-03-01T06:10:59;-3.50;99.90
38798;SHT11;24546;52.240;16.826;2023-03-01T06:16:00;-3.40;99.90
38798;SHT11;24546;52.240;16.826;2023-03-01T06:21:00;-3.50;99.90
38798;SHT11;24546;52.240;16.826;2023-03-01T06:26:05;-3.20;99.90
38798;SHT11;24546;52.240;16.826;2023-03-01T06:31:07;-3.20;99.90
38798;SHT11;24546;52.240;16.826;2023-03-01T06:36:09;-2.80;99.90
38798;SHT11;24546;52.240;16.826;2023-03-01T06:41:10;-2.70;99.90
38798;SHT11;24546;52.240;16.826;2023-03-01T06:46:11;-2.40;99.90
38798;SHT11;24546;52.240;16.826;2023-03-01T06:51:12;-2.20;99.90
38798;SHT11;24546;52.240;16.826;2023-03-01T06:56:13;-1.80;99.90
38798;SHT11;24546;52.240;16.826;2023-03-01T07:01:14;-1.50;99.90
38798;SHT11;24546;52.240;16.826;2023-03-01T07:06:15;-1.30;99.90
38798;SHT11;24546;52.240;16.826;2023-03-01T07:11:16;-1.00;99.90
38798;SHT11;24546;52.240;16.826;2023-03-01T07:16:18;-0.80;99.90
38798;SHT11;24546;52.240;16.826;2023-03-01T07:21:20;-0.60;99.90
38798;SHT11;24546;52.240;16.826;2023-03-01T07:26:21;-0.40;99.90
38798;SHT11;24546;52.240;16.826;2023-03-01T07:31:22;-0.10;99.90
38798;SHT11;24546;52.240;16.826;2023-03-01T07:36:24;0.10;99.90
38798;SHT11;24546;52.240;16.826;2023-03-01T07:41:25;0.20;99.90
38798;SHT11;24546;52.240;16.826;2023-03-01T07:46:26;0.40;99.90
38798;SHT11;24546;52.240;16.826;2023-03-01T07:51:27;0.60;99.90
38798;SHT11;24546;52.240;16.826;2023-03-01T07:56:28;0.90;99.90
38798;SHT11;24546;52.240;16.826;2023-03-01T08:01:29;1.30;99.90
38798;SHT11;24546;52.240;16.826;2023-03-01T08:06:30;1.80;99.90
38798;SHT11;24546;52.240;16.826;2023-03-01T08:11:31;2.20;99.90
38798;SHT11;24546;52.240;16.826;2023-03-01T08:16:33;2.80;99.90
38798;SHT11;24546;52.240;16.826;2023-03-01T08:21:36;3.40;99.90
38798;SHT11;24546;52.240;16.826;2023-03-01T08:26:37;3.90;99.90
38798;SHT11;24546;52.240;16.826;2023-03-01T08:31:39;4.50;99.90
38798;SHT11;24546;52.240;16.826;2023-03-01T08:36:43;5.10;99.90
38798;SHT11;24546;52.240;16.826;2023-03-01T08:41:44;5.70;99.90
38798;SHT11;24546;52.240;16.826;2023-03-01T08:46:46;6.10;99.90
38798;SHT11;24546;52.240;16.826;2023-03-01T08:51:47;6.60;99.10
38798;SHT11;24546;52.240;16.826;2023-03-01T08:56:49;6.80;99.20
38798;SHT11;24546;52.240;16.826;2023-03-01T09:01:50;6.90;98.80
38798;SHT11;24546;52.240;16.826;2023-03-01T09:06:51;7.30;99.20
38798;SHT11;24546;52.240;16.826;2023-03-01T09:11:52;7.50;97.10
38798;SHT11;24546;52.240;16.826;2023-03-01T09:17:05;7.70;96.10
38798;SHT11;24546;52.240;16.826;2023-03-01T09:22:06;7.90;95.80
38798;SHT11;24546;52.240;16.826;2023-03-01T09:27:07;7.60;95.20
38798;SHT11;24546;52.240;16.826;2023-03-01T09:32:10;8.10;94.70
38798;SHT11;24546;52.240;16.826;2023-03-01T09:37:11;8.60;93.30
38798;SHT11;24546;52.240;16.826;2023-03-01T09:42:13;9.00;92.90
38798;SHT11;24546;52.240;16.826;2023-03-01T09:47:22;9.30;91.10
38798;SHT11;24546;52.240;16.826;2023-03-01T09:52:48;9.20;91.00
38798;SHT11;24546;52.240;16.826;2023-03-01T09:58:20;9.40;89.80
38798;SHT11;24546;52.240;16.826;2023-03-01T10:03:28;9.70;88.70
38798;SHT11;24546;52.240;16.826;2023-03-01T10:19:40;10.40;85.10
38798;SHT11;24546;52.240;16.826;2023-03-01T10:24:42;9.90;83.50
38798;SHT11;24546;52.240;16.826;2023-03-01T10:35:28;9.60;85.20
38798;SHT11;24546;52.240;16.826;2023-03-01T10:40:29;9.60;85.00
38798;SHT11;24546;52.240;16.826;2023-03-01T10:45:37;9.80;85.00
38798;SHT11;24546;52.240;16.826;2023-03-01T10:50:40;9.90;85.40
38798;SHT11;24546;52.240;16.826;2023-03-01T10:55:42;9.90;85.70
38798;SHT11;24546;52.240;16.826;2023-03-01T11:00:48;10.20;85.70
38798;SHT11;24546;52.240;16.826;2023-03-01T11:11:22;10.50;85.20
38798;SHT11;24546;52.240;16.826;2023-03-01T11:16:31;10.40;82.50
38798;SHT11;24546;52.240;16.826;2023-03-01T11:21:33;10.70;85.40
38798;SHT11;24546;52.240;16.826;2023-03-01T11:26:39;10.20;85.10
38798;SHT11;24546;52.240;16.826;2023-03-01T11:31:48;9.90;85.70
38798;SHT11;24546;52.240;16.826;2023-03-01T11:36:58;10.00;84.00
38798;SHT11;24546;52.240;16.826;2023-03-01T12:03:30;11.10;83.40
38798;SHT11;24546;52.240;16.826;2023-03-01T12:08:47;10.70;81.10
38798;SHT11;24546;52.240;16.826;2023-03-01T12:19:33;9.80;83.30
38798;SHT11;24546;52.240;16.826;2023-03-01T12:30:31;10.50;83.50
38798;SHT11;24546;52.240;16.826;2023-03-01T12:51:50;10.30;82.10
38798;SHT11;24546;52.240;16.826;2023-03-01T12:56:52;9.70;84.60
38798;SHT11;24546;52.240;16.826;2023-03-01T13:07:21;9.40;83.50
38798;SHT11;24546;52.240;16.826;2023-03-01T13:12:42;9.70;86.30
38798;SHT11;24546;52.240;16.826;2023-03-01T13:17:45;9.60;85.20
38798;SHT11;24546;52.240;16.826;2023-03-01T13:22:47;9.30;89.00
38798;SHT11;24546;52.240;16.826;2023-03-01T13:27:48;9.30;86.00
38798;SHT11;24546;52.240;16.826;2023-03-01T13:32:49;9.20;87.60
38798;SHT11;24546;52.240;16.826;2023-03-01T13:37:50;9.00;87.10
38798;SHT11;24546;52.240;16.826;2023-03-01T13:42:55;9.30;87.70
38798;SHT11;24546;52.240;16.826;2023-03-01T13:48:00;9.20;88.00
38798;SHT11;24546;52.240;16.826;2023-03-01T13:53:05;9.00;89.10
38798;SHT11;24546;52.240;16.826;2023-03-01T13:58:28;8.90;89.60
38798;SHT11;24546;52.240;16.826;2023-03-01T14:03:32;9.00;88.10
38798;SHT11;24546;52.240;16.826;2023-03-01T14:08:36;8.50;90.20
38798;SHT11;24546;52.240;16.826;2023-03-01T14:19:12;8.60;89.90
38798;SHT11;24546;52.240;16.826;2023-03-01T14:24:18;8.50;91.20
38798;SHT11;24546;52.240;16.826;2023-03-01T14:29:38;8.40;90.70
38798;SHT11;24546;52.240;16.826;2023-03-01T14:34:44;8.30;92.30
38798;SHT11;24546;52.240;16.826;2023-03-01T14:39:46;8.40;92.50
38798;SHT11;24546;52.240;16.826;2023-03-01T14:44:50;8.50;92.70
38798;SHT11;24546;52.240;16.826;2023-03-01T14:49:57;8.20;93.80
38798;SHT11;24546;52.240;16.826;2023-03-01T14:54:59;8.30;93.60
38798;SHT11;24546;52.240;16.826;2023-03-01T15:00:03;8.20;94.30
38798;SHT11;24546;52.240;16.826;2023-03-01T15:05:06;8.10;94.20
38798;SHT11;24546;52.240;16.826;2023-03-01T15:10:20;8.00;94.70
38798;SHT11;24546;52.240;16.826;2023-03-01T15:15:33;8.20;94.70
38798;SHT11;24546;52.240;16.826;2023-03-01T15:20:38;8.30;94.70
38798;SHT11;24546;52.240;16.826;2023-03-01T15:25:44;8.30;94.80
38798;SHT11;24546;52.240;16.826;2023-03-01T15:30:45;8.10;95.10
38798;SHT11;24546;52.240;16.826;2023-03-01T15:35:51;8.10;95.20
38798;SHT11;24546;52.240;16.826;2023-03-01T15:40:53;7.90;95.60
38798;SHT11;24546;52.240;16.826;2023-03-01T15:45:57;7.60;96.40
38798;SHT11;24546;52.240;16.826;2023-03-01T15:50:59;7.60;96.40
38798;SHT11;24546;52.240;16.826;2023-03-01T15:56:02;7.50;96.60
38798;SHT11;24546;52.240;16.826;2023-03-01T16:01:07;7.40;97.00
38798;SHT11;24546;52.240;16.826;2023-03-01T16:06:10;7.20;97.50
38798;SHT11;24546;52.240;16.826;2023-03-01T16:11:19;7.00;97.80
38798;SHT11;24546;52.240;16.826;2023-03-01T16:16:20;6.80;98.50
38798;SHT11;24546;52.240;16.826;2023-03-01T16:21:25;6.70;98.60
38798;SHT11;24546;52.240;16.826;2023-03-01T16:26:25;6.50;98.90
38798;SHT11;24546;52.240;16.826;2023-03-01T16:31:27;6.40;99.20
38798;SHT11;24546;52.240;16.826;2023-03-01T16:36:29;6.30;99.20
38798;SHT11;24546;52.240;16.826;2023-03-01T16:41:30;6.10;99.30
38798;SHT11;24546;52.240;16.826;2023-03-01T16:46:31;6.00;99.00
38798;SHT11;24546;52.240;16.826;2023-03-01T16:51:32;5.80;99.60
38798;SHT11;24546;52.240;16.826;2023-03-01T16:56:35;5.70;99.90
38798;SHT11;24546;52.240;16.826;2023-03-01T17:01:38;5.50;99.90
38798;SHT11;24546;52.240;16.826;2023-03-01T17:06:41;5.40;99.90
38798;SHT11;24546;52.240;16.826;2023-03-01T17:11:42;5.30;99.90
38798;SHT11;24546;52.240;16.826;2023-03-01T17:16:43;5.10;99.90
38798;SHT11;24546;52.240;16.826;2023-03-01T17:21:45;5.00;99.90
38798;SHT11;24546;52.240;16.826;2023-03-01T17:26:46;4.80;99.90
38798;SHT11;24546;52.240;16.826;2023-03-01T17:31:47;4.60;99.90
38798;SHT11;24546;52.240;16.826;2023-03-01T17:36:49;4.40;99.90
38798;SHT11;24546;52.240;16.826;2023-03-01T17:41:52;4.30;99.90
38798;SHT11;24546;52.240;16.826;2023-03-01T17:46:53;4.20;99.90
38798;SHT11;24546;52.240;16.826;2023-03-01T17:51:54;4.20;99.90
38798;SHT11;24546;52.240;16.826;2023-03-01T17:56:55;4.10;99.90
38798;SHT11;24546;52.240;16.826;2023-03-01T18:01:58;4.00;99.90
38798;SHT11;24546;52.240;16.826;2023-03-01T18:07:01;3.90;99.90
38798;SHT11;24546;52.240;16.826;2023-03-01T18:12:02;3.80;99.90
38798;SHT11;24546;52.240;16.826;2023-03-01T18:17:03;3.70;99.90
38798;SHT11;24546;52.240;16.826;2023-03-01T18:22:11;3.60;99.90
38798;SHT11;24546;52.240;16.826;2023-03-01T18:27:12;3.50;99.90
38798;SHT11;24546;52.240;16.826;2023-03-01T18:32:13;3.40;99.90
38798;SHT11;24546;52.240;16.826;2023-03-01T18:37:15;3.40;99.90
38798;SHT11;24546;52.240;16.826;2023-03-01T18:42:17;3.30;99.90
38798;SHT11;24546;52.240;16.826;2023-03-01T18:47:20;3.20;99.90
38798;SHT11;24546;52.240;16.826;2023-03-01T18:52:21;3.00;99.90
38798;SHT11;24546;52.240;16.826;2023-03-01T18:57:22;3.00;99.90
38798;SHT11;24546;52.240;16.826;2023-03-01T19:02:23;2.90;99.90
38798;SHT11;24546;52.240;16.826;2023-03-01T19:07:23;2.90;99.90
38798;SHT11;24546;52.240;16.826;2023-03-01T19:12:25;2.80;99.90
38798;SHT11;24546;52.240;16.826;2023-03-01T19:17:27;2.80;99.90
38798;SHT11;24546;52.240;16.826;2023-03-01T19:22:30;2.70;99.90
38798;SHT11;24546;52.240;16.826;2023-03-01T19:27:31;2.60;99.90
38798;SHT11;24546;52.240;16.826;2023-03-01T19:32:32;2.60;99.90
38798;SHT11;24546;52.240;16.826;2023-03-01T19:37:33;2.60;99.90
38798;SHT11;24546;52.240;16.826;2023-03-01T19:42:35;2.50;99.90
38798;SHT11;24546;52.240;16.826;2023-03-01T19:47:36;2.40;99.90
38798;SHT11;24546;52.240;16.826;2023-03-01T19:52:38;2.40;99.90
38798;SHT11;24546;52.240;16.826;2023-03-01T19:57:39;2.30;99.90
38798;SHT11;24546;52.240;16.826;2023-03-01T20:02:40;2.30;99.90
38798;SHT11;24546;52.240;16.826;2023-03-01T20:07:41;2.20;99.90
38798;SHT11;24546;52.240;16.826;2023-03-01T20:12:43;2.20;99.90
38798;SHT11;24546;52.240;16.826;2023-03-01T20:17:44;2.10;99.90
38798;SHT11;24546;52.240;16.826;2023-03-01T20:22:45;2.10;99.90
38798;SHT11;24546;52.240;16.826;2023-03-01T20:27:46;2.00;99.90
38798;SHT11;24546;52.240;16.826;2023-03-01T20:32:47;2.00;99.90
38798;SHT11;24546;52.240;16.826;2023-03-01T20:37:51;1.90;99.90
38798;SHT11;24546;52.240;16.826;2023-03-01T20:42:53;1.80;99.90
38798;SHT11;24546;52.240;16.826;2023-03-01T20:47:54;1.80;99.90
38798;SHT11;24546;52.240;16.826;2023-03-01T20:52:55;1.70;99.90
38798;SHT11;24546;52.240;16.826;2023-03-01T20:57:56;1.70;99.90
38798;SHT11;24546;52.240;16.826;2023-03-01T21:02:57;1.60;99.90
38798;SHT11;24546;52.240;16.826;2023-03-01T21:07:58;1.60;99.90
38798;SHT11;24546;52.240;16.826;2023-03-01T21:13:02;1.50;99.90
38798;SHT11;24546;52.240;16.826;2023-03-01T21:18:03;1.50;99.90
38798;SHT11;24546;52.240;16.826;2023-03-01T21:23:04;1.40;99.90
38798;SHT11;24546;52.240;16.826;2023-03-01T21:28:05;1.40;99.90
38798;SHT11;24546;52.240;16.826;2023-03-01T21:33:07;1.30;99.90
38798;SHT11;24546;52.240;16.826;2023-03-01T21:38:08;1.20;99.90
38798;SHT11;24546;52.240;16.826;2023-03-01T21:43:09;1.20;99.90
38798;SHT11;24546;52.240;16.826;2023-03-01T21:48:13;1.10;99.90
38798;SHT11;24546;52.240;16.826;2023-03-01T21:53:14;1.10;99.90
38798;SHT11;24546;52.240;16.826;2023-03-01T21:58:18;1.00;99.90
38798;SHT11;24546;52.240;16.826;2023-03-01T22:03:19;1.00;99.90
38798;SHT11;24546;52.240;16.826;2023-03-01T22:08:20;0.90;99.90
38798;SHT11;24546;52.240;16.826;2023-03-01T22:13:22;0.90;99.90
38798;SHT11;24546;52.240;16.826;2023-03-01T22:18:23;0.90;99.90
38798;SHT11;24546;52.240;16.826;2023-03-01T22:23:23;0.80;99.90
38798;SHT11;24546;52.240;16.826;2023-03-01T22:28:25;0.80;99.90
38798;SHT11;24546;52.240;16.826;2023-03-01T22:33:26;0.70;99.90
38798;SHT11;24546;52.240;16.826;2023-03-01T22:38:26;0.70;99.90
38798;SHT11;24546;52.240;16.826;2023-03-01T22:43:29;0.70;99.90
38798;SHT11;24546;52.240;16.826;2023-03-01T22:48:31;0.70;99.90
38798;SHT11;24546;52.240;16.826;2023-03-01T22:53:32;0.60;99.90
38798;SHT11;24546;52.240;16.826;2023-03-01T22:58:33;0.50;99.90
38798;SHT11;24546;52.240;16.826;2023-03-01T23:03:34;0.40;99.90
38798;SHT11;24546;52.240;16.826;2023-03-01T23:08:35;0.40;99.90
38798;SHT11;24546;52.240;16.826;2023-03-01T23:13:36;0.40;99.90
38798;SHT11;24546;52.240;16.826;2023-03-01T23:18:38;0.40;99.90
38798;SHT11;24546;52.240;16.826;2023-03-01T23:23:39;0.30;99.90
38798;SHT11;24546;52.240;16.826;2023-03-01T23:28:40;0.30;99.90
38798;SHT11;24546;52.240;16.826;2023-03-01T23:33:42;0.30;99.90
38798;SHT11;24546;52.240;16.826;2023-03-01T23:38:46;0.20;99.90
38798;SHT11;24546;52.240;16.826;2023-03-01T23:43:50;0.20;99.90
38798;SHT11;24546;52.240;16.826;2023-03-01T23:48:52;0.10;99.90
38798;SHT11;24546;52.240;16.826;2023-03-01T23:53:56;0.10;99.90
38798;SHT11;24546;52.240;16.826;2023-03-01T23:59:08;0.10;99.90
